Mesa Verde National Park, CO

3:36 AM MDT on October 22, 2014 (GMT -0600)
Kelly Place B&B, McElmo Canyon | Change Station
CLOSE
Current Station
Personal Weather Station
Location: Cortez, CO
Elevation: 5522 ft
Nearby Weather Stations

Elev 5522 ft 37.34 °N, 108.79 °W | Updated 4 minutes ago

Clear
Clear
51.6 °F
Feels Like 51.6 °F
N
4.7
Wind Variable Wind from NE
Gusts 4.7 mph

Today
High -- | Low -- °F
--% Chance of Precip.
Yesterday
High -- | Low -- °F
Precip. -- in
7:29 AM 6:28 PM
Waning Crescent, 2% visible
Pressure 29.97 in
Visibility 10.0 miles
Clouds Clear
Dew Point 39 °F
Humidity 63%
Rainfall 0.00 in
Snow Depth Not available.
UV 0 out of 12
Pollen 2.40 out of 12
Air Quality Not available.
Flu Activity Sporadic
METAR KCEZ 220853Z AUTO 00000KT 10SM CLR 05/03 A3011 RMK AO2 SLP148 T00500033 52003

More Conditions Fewer Conditions

Pressure 29.97 in
Visibility 10.0 miles
Clouds Clear
Dew Point 39 °F
Humidity 63%
Rainfall 0.00 in
Snow Depth Not available.
UV 0 out of 12
Pollen 2.40 out of 12
Air Quality Not available.
Flu Activity Sporadic
METAR KCEZ 220853Z AUTO 00000KT 10SM CLR 05/03 A3011 RMK AO2 SLP148 T00500033 52003

More Conditions Fewer Conditions

10-Day Weather Forecast

Almanac

Astronomy

Oct. 22, 2014 Rise Set
Actual Time 7:29 AM MDT 6:28 PM MDT
Civil Twilight 7:03 AM MDT 6:55 PM MDT
Nautical Twilight 6:32 AM MDT 7:25 PM MDT
Astronomical Twilight 6:02 AM MDT 7:55 PM MDT
Moon 6:15 AM MDT 5:56 PM MDT
Length of Visible Light 11h 51m
Length of Day
10h 58m
Tomorrow will be 2m 14s shorter.
Waning Crescent, 2% of the Moon is Illuminated
Today
Waning Crescent
Oct 23
New
Oct 30
First Quarter
Nov 6
Full
Nov 14
Last Quarter

Today's Extremes

State Highs State Lows

Community

WunderPhotos

Upload Photos

1,763,900 photos uploaded!

Nearby

Snow Depth

Station Depth Elevation
Mancos 0 in 10000 ft
Sharkstooth 0 in 10720 ft
Columbus Basin 1 in 10785 ft
Scotch Creek 0 in 9100 ft
Lone Cone 7 in 9600 ft

Earthquake Activity

City Distance Mag. Time & Date
No recent earthquake activity has been reported nearby.
Minimum magnitude displayed is 2.5.

Coastal Water Temperatures

Place Temperature
No Stations Reporting

Nearby Weather Stations